sensor_id;sensor_type;location;lat;lon;timestamp;temperature;humidity
72905;DHT22;61048;52.162;4.516;2022-12-18T00:00:40;16.80;58.40
72905;DHT22;61048;52.162;4.516;2022-12-18T00:03:07;16.80;58.50
72905;DHT22;61048;52.162;4.516;2022-12-18T00:05:34;16.70;58.50
72905;DHT22;61048;52.162;4.516;2022-12-18T00:08:01;16.70;58.40
72905;DHT22;61048;52.162;4.516;2022-12-18T00:10:29;16.70;58.50
72905;DHT22;61048;52.162;4.516;2022-12-18T00:12:57;16.70;58.50
72905;DHT22;61048;52.162;4.516;2022-12-18T00:15:24;16.60;58.50
72905;DHT22;61048;52.162;4.516;2022-12-18T00:17:51;16.60;58.40
72905;DHT22;61048;52.162;4.516;2022-12-18T00:20:17;16.60;58.30
72905;DHT22;61048;52.162;4.516;2022-12-18T00:22:51;16.60;58.50
72905;DHT22;61048;52.162;4.516;2022-12-18T00:25:17;16.60;58.70
72905;DHT22;61048;52.162;4.516;2022-12-18T00:27:44;16.50;58.80
72905;DHT22;61048;52.162;4.516;2022-12-18T00:30:13;16.50;58.80
72905;DHT22;61048;52.162;4.516;2022-12-18T00:32:40;16.50;58.90
72905;DHT22;61048;52.162;4.516;2022-12-18T00:35:07;16.50;59.00
72905;DHT22;61048;52.162;4.516;2022-12-18T00:37:34;16.50;59.10
72905;DHT22;61048;52.162;4.516;2022-12-18T00:40:01;16.50;59.20
72905;DHT22;61048;52.162;4.516;2022-12-18T00:42:28;16.40;58.50
72905;DHT22;61048;52.162;4.516;2022-12-18T00:45:14;16.40;58.40
72905;DHT22;61048;52.162;4.516;2022-12-18T00:47:41;16.40;58.60
72905;DHT22;61048;52.162;4.516;2022-12-18T00:50:08;16.30;59.00
72905;DHT22;61048;52.162;4.516;2022-12-18T00:52:35;16.30;59.10
72905;DHT22;61048;52.162;4.516;2022-12-18T00:55:03;16.30;59.20
72905;DHT22;61048;52.162;4.516;2022-12-18T00:57:30;16.30;59.20
72905;DHT22;61048;52.162;4.516;2022-12-18T00:59:56;16.30;58.90
72905;DHT22;61048;52.162;4.516;2022-12-18T01:02:25;16.30;59.10
72905;DHT22;61048;52.162;4.516;2022-12-18T01:04:52;16.30;59.40
72905;DHT22;61048;52.162;4.516;2022-12-18T01:07:19;16.20;59.30
72905;DHT22;61048;52.162;4.516;2022-12-18T01:09:45;16.30;59.50
72905;DHT22;61048;52.162;4.516;2022-12-18T01:12:12;16.20;59.40
72905;DHT22;61048;52.162;4.516;2022-12-18T01:14:39;16.20;59.40
72905;DHT22;61048;52.162;4.516;2022-12-18T01:17:06;16.20;59.60
72905;DHT22;61048;52.162;4.516;2022-12-18T01:19:34;16.20;59.60
72905;DHT22;61048;52.162;4.516;2022-12-18T01:22:01;16.20;59.60
72905;DHT22;61048;52.162;4.516;2022-12-18T01:24:28;16.20;59.70
72905;DHT22;61048;52.162;4.516;2022-12-18T01:26:55;16.20;59.80
72905;DHT22;61048;52.162;4.516;2022-12-18T01:29:23;16.10;59.70
72905;DHT22;61048;52.162;4.516;2022-12-18T01:31:50;16.10;59.60
72905;DHT22;61048;52.162;4.516;2022-12-18T01:34:17;16.10;59.80
72905;DHT22;61048;52.162;4.516;2022-12-18T01:36:45;16.10;59.80
72905;DHT22;61048;52.162;4.516;2022-12-18T01:39:13;16.10;59.90
72905;DHT22;61048;52.162;4.516;2022-12-18T01:41:41;16.10;59.90
72905;DHT22;61048;52.162;4.516;2022-12-18T01:47:33;16.00;59.70
72905;DHT22;61048;52.162;4.516;2022-12-18T01:50:03;16.00;60.10
72905;DHT22;61048;52.162;4.516;2022-12-18T01:52:32;16.00;60.20
72905;DHT22;61048;52.162;4.516;2022-12-18T01:55:02;15.90;60.40
72905;DHT22;61048;52.162;4.516;2022-12-18T01:57:29;15.90;60.40
72905;DHT22;61048;52.162;4.516;2022-12-18T01:59:59;15.90;60.50
72905;DHT22;61048;52.162;4.516;2022-12-18T02:02:28;15.90;60.30
72905;DHT22;61048;52.162;4.516;2022-12-18T02:04:55;15.90;60.30
72905;DHT22;61048;52.162;4.516;2022-12-18T02:07:28;15.90;60.40
72905;DHT22;61048;52.162;4.516;2022-12-18T02:10:03;15.90;60.50
72905;DHT22;61048;52.162;4.516;2022-12-18T02:12:39;15.90;60.10
72905;DHT22;61048;52.162;4.516;2022-12-18T02:15:13;15.80;60.20
72905;DHT22;61048;52.162;4.516;2022-12-18T02:17:45;15.80;60.20
72905;DHT22;61048;52.162;4.516;2022-12-18T02:20:18;15.80;60.50
72905;DHT22;61048;52.162;4.516;2022-12-18T02:23:00;15.80;60.30
72905;DHT22;61048;52.162;4.516;2022-12-18T02:25:51;15.80;60.30
72905;DHT22;61048;52.162;4.516;2022-12-18T02:28:22;15.80;60.20
72905;DHT22;61048;52.162;4.516;2022-12-18T02:30:51;15.70;60.40
72905;DHT22;61048;52.162;4.516;2022-12-18T02:33:19;15.70;60.30
72905;DHT22;61048;52.162;4.516;2022-12-18T02:35:48;15.70;60.50
72905;DHT22;61048;52.162;4.516;2022-12-18T02:38:16;15.70;60.70
72905;DHT22;61048;52.162;4.516;2022-12-18T02:40:44;15.70;60.70
72905;DHT22;61048;52.162;4.516;2022-12-18T02:43:14;15.70;60.60
72905;DHT22;61048;52.162;4.516;2022-12-18T02:45:47;15.70;60.80
72905;DHT22;61048;52.162;4.516;2022-12-18T02:48:15;15.70;60.70
72905;DHT22;61048;52.162;4.516;2022-12-18T02:50:47;15.60;60.60
72905;DHT22;61048;52.162;4.516;2022-12-18T02:53:20;15.60;60.70
72905;DHT22;61048;52.162;4.516;2022-12-18T02:55:58;15.60;60.70
72905;DHT22;61048;52.162;4.516;2022-12-18T02:58:34;15.60;60.70
72905;DHT22;61048;52.162;4.516;2022-12-18T03:01:09;15.60;60.80
72905;DHT22;61048;52.162;4.516;2022-12-18T03:03:40;15.60;60.80
72905;DHT22;61048;52.162;4.516;2022-12-18T03:06:12;15.60;61.00
72905;DHT22;61048;52.162;4.516;2022-12-18T03:08:43;15.50;61.00
72905;DHT22;61048;52.162;4.516;2022-12-18T03:11:12;15.60;60.90
72905;DHT22;61048;52.162;4.516;2022-12-18T03:13:45;15.60;60.80
72905;DHT22;61048;52.162;4.516;2022-12-18T03:16:16;15.50;60.60
72905;DHT22;61048;52.162;4.516;2022-12-18T03:18:47;15.50;60.80
72905;DHT22;61048;52.162;4.516;2022-12-18T03:21:19;15.50;60.90
72905;DHT22;61048;52.162;4.516;2022-12-18T03:23:49;15.50;60.90
72905;DHT22;61048;52.162;4.516;2022-12-18T03:26:19;15.50;60.80
72905;DHT22;61048;52.162;4.516;2022-12-18T03:28:51;15.50;61.00
72905;DHT22;61048;52.162;4.516;2022-12-18T03:31:21;15.50;61.00
72905;DHT22;61048;52.162;4.516;2022-12-18T03:33:52;15.50;61.00
72905;DHT22;61048;52.162;4.516;2022-12-18T03:36:19;15.40;60.90
72905;DHT22;61048;52.162;4.516;2022-12-18T03:38:46;15.40;60.80
72905;DHT22;61048;52.162;4.516;2022-12-18T03:41:18;15.40;61.10
72905;DHT22;61048;52.162;4.516;2022-12-18T03:43:53;15.40;60.90
72905;DHT22;61048;52.162;4.516;2022-12-18T03:46:26;15.40;61.00
72905;DHT22;61048;52.162;4.516;2022-12-18T03:48:59;15.40;61.00
72905;DHT22;61048;52.162;4.516;2022-12-18T03:51:36;15.40;60.90
72905;DHT22;61048;52.162;4.516;2022-12-18T03:54:05;15.40;61.10
72905;DHT22;61048;52.162;4.516;2022-12-18T03:56:36;15.30;61.00
72905;DHT22;61048;52.162;4.516;2022-12-18T03:59:06;15.30;61.00
72905;DHT22;61048;52.162;4.516;2022-12-18T04:01:37;15.30;61.00
72905;DHT22;61048;52.162;4.516;2022-12-18T04:04:05;15.30;60.90
72905;DHT22;61048;52.162;4.516;2022-12-18T04:06:33;15.30;60.90
72905;DHT22;61048;52.162;4.516;2022-12-18T04:09:01;15.30;60.90
72905;DHT22;61048;52.162;4.516;2022-12-18T04:11:28;15.30;60.80
72905;DHT22;61048;52.162;4.516;2022-12-18T04:13:56;15.30;61.00
72905;DHT22;61048;52.162;4.516;2022-12-18T04:16:25;15.30;60.90
72905;DHT22;61048;52.162;4.516;2022-12-18T04:18:53;15.30;61.00
72905;DHT22;61048;52.162;4.516;2022-12-18T04:21:20;15.20;60.90
72905;DHT22;61048;52.162;4.516;2022-12-18T04:23:48;15.20;61.10
72905;DHT22;61048;52.162;4.516;2022-12-18T04:26:15;15.20;61.00
72905;DHT22;61048;52.162;4.516;2022-12-18T04:28:41;15.20;61.10
72905;DHT22;61048;52.162;4.516;2022-12-18T04:31:08;15.20;61.10
72905;DHT22;61048;52.162;4.516;2022-12-18T04:33:36;15.20;61.20
72905;DHT22;61048;52.162;4.516;2022-12-18T04:36:04;15.20;61.20
72905;DHT22;61048;52.162;4.516;2022-12-18T04:38:31;15.20;61.20
72905;DHT22;61048;52.162;4.516;2022-12-18T04:40:59;15.20;61.20
72905;DHT22;61048;52.162;4.516;2022-12-18T04:43:25;15.20;61.30
72905;DHT22;61048;52.162;4.516;2022-12-18T04:45:52;15.20;61.20
72905;DHT22;61048;52.162;4.516;2022-12-18T04:48:20;15.10;61.10
72905;DHT22;61048;52.162;4.516;2022-12-18T04:50:48;15.10;61.10
72905;DHT22;61048;52.162;4.516;2022-12-18T04:53:15;15.10;61.50
72905;DHT22;61048;52.162;4.516;2022-12-18T04:55:42;15.10;61.40
72905;DHT22;61048;52.162;4.516;2022-12-18T04:58:09;15.10;61.40
72905;DHT22;61048;52.162;4.516;2022-12-18T05:00:35;15.10;61.40
72905;DHT22;61048;52.162;4.516;2022-12-18T05:03:02;15.10;61.40
72905;DHT22;61048;52.162;4.516;2022-12-18T05:05:29;15.10;61.40
72905;DHT22;61048;52.162;4.516;2022-12-18T05:07:58;15.10;61.50
72905;DHT22;61048;52.162;4.516;2022-12-18T05:10:24;15.10;61.50
72905;DHT22;61048;52.162;4.516;2022-12-18T05:12:51;15.00;61.30
72905;DHT22;61048;52.162;4.516;2022-12-18T05:15:26;15.00;61.30
72905;DHT22;61048;52.162;4.516;2022-12-18T05:17:53;15.10;61.40
72905;DHT22;61048;52.162;4.516;2022-12-18T05:20:19;15.00;61.30
72905;DHT22;61048;52.162;4.516;2022-12-18T05:22:46;15.00;61.50
72905;DHT22;61048;52.162;4.516;2022-12-18T05:25:15;15.00;61.50
72905;DHT22;61048;52.162;4.516;2022-12-18T05:27:41;15.00;61.50
72905;DHT22;61048;52.162;4.516;2022-12-18T05:30:09;15.00;61.60
72905;DHT22;61048;52.162;4.516;2022-12-18T05:32:36;15.00;61.50
72905;DHT22;61048;52.162;4.516;2022-12-18T05:35:05;15.00;61.60
72905;DHT22;61048;52.162;4.516;2022-12-18T05:37:33;15.00;61.90
72905;DHT22;61048;52.162;4.516;2022-12-18T05:40:00;14.90;61.70
72905;DHT22;61048;52.162;4.516;2022-12-18T05:42:28;14.90;62.10
72905;DHT22;61048;52.162;4.516;2022-12-18T05:44:55;15.00;61.70
72905;DHT22;61048;52.162;4.516;2022-12-18T05:47:22;14.90;61.60
72905;DHT22;61048;52.162;4.516;2022-12-18T05:49:49;14.90;61.90
72905;DHT22;61048;52.162;4.516;2022-12-18T05:52:16;14.90;62.00
72905;DHT22;61048;52.162;4.516;2022-12-18T05:54:43;14.90;61.90
72905;DHT22;61048;52.162;4.516;2022-12-18T05:57:09;14.90;61.80
72905;DHT22;61048;52.162;4.516;2022-12-18T05:59:38;14.90;62.00
72905;DHT22;61048;52.162;4.516;2022-12-18T06:02:05;14.90;62.10
72905;DHT22;61048;52.162;4.516;2022-12-18T06:04:32;14.90;62.20
72905;DHT22;61048;52.162;4.516;2022-12-18T06:06:59;14.90;62.00
72905;DHT22;61048;52.162;4.516;2022-12-18T06:09:26;14.90;62.10
72905;DHT22;61048;52.162;4.516;2022-12-18T06:11:53;14.90;62.20
72905;DHT22;61048;52.162;4.516;2022-12-18T06:14:20;14.90;62.20
72905;DHT22;61048;52.162;4.516;2022-12-18T06:16:50;14.90;62.20
72905;DHT22;61048;52.162;4.516;2022-12-18T06:19:18;14.90;62.10
72905;DHT22;61048;52.162;4.516;2022-12-18T06:21:45;14.80;62.20
72905;DHT22;61048;52.162;4.516;2022-12-18T06:24:12;14.90;62.20
72905;DHT22;61048;52.162;4.516;2022-12-18T06:26:38;14.90;61.90
72905;DHT22;61048;52.162;4.516;2022-12-18T06:29:06;14.90;62.30
72905;DHT22;61048;52.162;4.516;2022-12-18T06:31:33;14.90;62.30
72905;DHT22;61048;52.162;4.516;2022-12-18T06:34:02;14.90;62.30
72905;DHT22;61048;52.162;4.516;2022-12-18T06:36:29;14.90;62.50
72905;DHT22;61048;52.162;4.516;2022-12-18T06:38:57;14.90;62.30
72905;DHT22;61048;52.162;4.516;2022-12-18T06:41:24;14.90;62.30
72905;DHT22;61048;52.162;4.516;2022-12-18T06:43:51;14.90;62.30
72905;DHT22;61048;52.162;4.516;2022-12-18T06:46:18;14.90;62.00
72905;DHT22;61048;52.162;4.516;2022-12-18T06:48:47;14.90;62.00
72905;DHT22;61048;52.162;4.516;2022-12-18T06:51:18;14.90;62.00
72905;DHT22;61048;52.162;4.516;2022-12-18T06:53:45;14.90;62.00
72905;DHT22;61048;52.162;4.516;2022-12-18T06:56:12;14.90;61.70
72905;DHT22;61048;52.162;4.516;2022-12-18T06:58:40;14.90;61.70
72905;DHT22;61048;52.162;4.516;2022-12-18T07:01:08;14.90;61.80
72905;DHT22;61048;52.162;4.516;2022-12-18T07:03:36;14.90;61.70
72905;DHT22;61048;52.162;4.516;2022-12-18T07:06:04;14.90;61.70
72905;DHT22;61048;52.162;4.516;2022-12-18T07:08:32;14.90;61.70
72905;DHT22;61048;52.162;4.516;2022-12-18T07:11:03;14.90;61.70
72905;DHT22;61048;52.162;4.516;2022-12-18T07:13:30;14.80;61.30
72905;DHT22;61048;52.162;4.516;2022-12-18T07:16:06;14.80;61.20
72905;DHT22;61048;52.162;4.516;2022-12-18T07:18:33;14.80;61.30
72905;DHT22;61048;52.162;4.516;2022-12-18T07:21:03;14.80;61.10
72905;DHT22;61048;52.162;4.516;2022-12-18T07:23:33;14.80;61.10
72905;DHT22;61048;52.162;4.516;2022-12-18T07:26:02;14.80;61.00
72905;DHT22;61048;52.162;4.516;2022-12-18T07:28:29;14.80;61.00
72905;DHT22;61048;52.162;4.516;2022-12-18T07:30:56;14.80;61.20
72905;DHT22;61048;52.162;4.516;2022-12-18T07:33:23;14.80;61.00
72905;DHT22;61048;52.162;4.516;2022-12-18T07:35:49;14.80;61.00
72905;DHT22;61048;52.162;4.516;2022-12-18T07:38:16;14.80;61.00
72905;DHT22;61048;52.162;4.516;2022-12-18T07:40:45;14.80;61.30
72905;DHT22;61048;52.162;4.516;2022-12-18T07:43:11;14.80;61.00
72905;DHT22;61048;52.162;4.516;2022-12-18T07:45:38;14.80;61.20
72905;DHT22;61048;52.162;4.516;2022-12-18T07:48:05;14.80;60.90
72905;DHT22;61048;52.162;4.516;2022-12-18T07:50:32;14.80;60.90
72905;DHT22;61048;52.162;4.516;2022-12-18T07:52:59;14.80;61.20
72905;DHT22;61048;52.162;4.516;2022-12-18T07:55:29;14.80;61.20
72905;DHT22;61048;52.162;4.516;2022-12-18T07:58:00;14.80;60.90
72905;DHT22;61048;52.162;4.516;2022-12-18T08:00:27;14.80;60.90
72905;DHT22;61048;52.162;4.516;2022-12-18T08:02:53;14.80;61.00
72905;DHT22;61048;52.162;4.516;2022-12-18T08:05:21;14.80;60.90
72905;DHT22;61048;52.162;4.516;2022-12-18T08:07:48;14.80;60.70
72905;DHT22;61048;52.162;4.516;2022-12-18T08:10:15;14.80;61.10
72905;DHT22;61048;52.162;4.516;2022-12-18T08:12:42;14.80;61.30
72905;DHT22;61048;52.162;4.516;2022-12-18T08:15:10;14.80;60.90
72905;DHT22;61048;52.162;4.516;2022-12-18T08:17:37;14.80;61.00
72905;DHT22;61048;52.162;4.516;2022-12-18T08:20:05;14.80;60.70
72905;DHT22;61048;52.162;4.516;2022-12-18T08:22:34;14.80;60.90
72905;DHT22;61048;52.162;4.516;2022-12-18T08:25:01;14.80;60.90
72905;DHT22;61048;52.162;4.516;2022-12-18T08:27:28;14.80;60.70
72905;DHT22;61048;52.162;4.516;2022-12-18T08:29:55;14.80;60.70
72905;DHT22;61048;52.162;4.516;2022-12-18T08:32:23;14.80;60.90
72905;DHT22;61048;52.162;4.516;2022-12-18T08:34:51;14.80;60.70
72905;DHT22;61048;52.162;4.516;2022-12-18T08:37:18;14.80;60.70
72905;DHT22;61048;52.162;4.516;2022-12-18T08:39:45;14.80;60.60
72905;DHT22;61048;52.162;4.516;2022-12-18T08:42:11;14.80;60.60
72905;DHT22;61048;52.162;4.516;2022-12-18T08:44:56;14.80;60.90
72905;DHT22;61048;52.162;4.516;2022-12-18T08:47:24;14.80;60.90
72905;DHT22;61048;52.162;4.516;2022-12-18T08:49:52;14.80;61.30
72905;DHT22;61048;52.162;4.516;2022-12-18T08:52:19;14.80;61.20
72905;DHT22;61048;52.162;4.516;2022-12-18T08:54:45;14.80;61.20
72905;DHT22;61048;52.162;4.516;2022-12-18T08:57:12;14.80;61.20
72905;DHT22;61048;52.162;4.516;2022-12-18T08:59:39;14.90;60.80
72905;DHT22;61048;52.162;4.516;2022-12-18T09:02:07;14.90;61.10
72905;DHT22;61048;52.162;4.516;2022-12-18T09:04:36;14.90;61.10
72905;DHT22;61048;52.162;4.516;2022-12-18T09:07:02;14.90;60.90
72905;DHT22;61048;52.162;4.516;2022-12-18T09:09:29;14.90;61.00
72905;DHT22;61048;52.162;4.516;2022-12-18T09:11:56;14.90;60.70
72905;DHT22;61048;52.162;4.516;2022-12-18T09:14:23;14.90;60.90
72905;DHT22;61048;52.162;4.516;2022-12-18T09:16:50;14.90;60.60
72905;DHT22;61048;52.162;4.516;2022-12-18T09:19:17;14.90;60.40
72905;DHT22;61048;52.162;4.516;2022-12-18T09:21:45;14.90;60.40
72905;DHT22;61048;52.162;4.516;2022-12-18T09:24:13;14.80;60.20
72905;DHT22;61048;52.162;4.516;2022-12-18T09:26:40;14.80;60.10
72905;DHT22;61048;52.162;4.516;2022-12-18T09:29:07;14.80;60.00
72905;DHT22;61048;52.162;4.516;2022-12-18T09:31:35;14.70;59.70
72905;DHT22;61048;52.162;4.516;2022-12-18T09:34:02;14.70;59.40
72905;DHT22;61048;52.162;4.516;2022-12-18T09:36:29;14.70;59.10
72905;DHT22;61048;52.162;4.516;2022-12-18T09:38:57;14.70;59.00
72905;DHT22;61048;52.162;4.516;2022-12-18T09:41:39;14.60;58.50
72905;DHT22;61048;52.162;4.516;2022-12-18T09:44:14;14.60;58.70
72905;DHT22;61048;52.162;4.516;2022-12-18T09:46:44;14.60;58.50
72905;DHT22;61048;52.162;4.516;2022-12-18T09:49:16;14.60;59.60
72905;DHT22;61048;52.162;4.516;2022-12-18T09:51:45;14.70;63.00
72905;DHT22;61048;52.162;4.516;2022-12-18T09:54:18;14.80;62.20
72905;DHT22;61048;52.162;4.516;2022-12-18T09:56:47;14.80;62.90
72905;DHT22;61048;52.162;4.516;2022-12-18T09:59:20;14.80;62.40
72905;DHT22;61048;52.162;4.516;2022-12-18T10:01:47;14.80;62.10
72905;DHT22;61048;52.162;4.516;2022-12-18T10:04:14;14.80;62.40
72905;DHT22;61048;52.162;4.516;2022-12-18T10:06:48;14.70;61.70
72905;DHT22;61048;52.162;4.516;2022-12-18T10:09:24;14.60;61.60
72905;DHT22;61048;52.162;4.516;2022-12-18T10:12:00;14.60;61.40
72905;DHT22;61048;52.162;4.516;2022-12-18T10:14:33;14.50;60.10
72905;DHT22;61048;52.162;4.516;2022-12-18T10:17:07;14.50;61.00
72905;DHT22;61048;52.162;4.516;2022-12-18T10:19:42;14.50;61.10
72905;DHT22;61048;52.162;4.516;2022-12-18T10:22:22;14.60;61.00
72905;DHT22;61048;52.162;4.516;2022-12-18T10:24:57;14.60;60.60
72905;DHT22;61048;52.162;4.516;2022-12-18T10:27:27;14.60;60.80
72905;DHT22;61048;52.162;4.516;2022-12-18T10:29:55;14.60;60.60
72905;DHT22;61048;52.162;4.516;2022-12-18T10:32:24;14.60;60.40
72905;DHT22;61048;52.162;4.516;2022-12-18T10:34:53;14.60;60.40
72905;DHT22;61048;52.162;4.516;2022-12-18T10:37:22;14.50;60.50
72905;DHT22;61048;52.162;4.516;2022-12-18T10:40:08;14.50;59.80
72905;DHT22;61048;52.162;4.516;2022-12-18T10:42:37;14.50;60.50
72905;DHT22;61048;52.162;4.516;2022-12-18T10:45:09;14.50;60.20
72905;DHT22;61048;52.162;4.516;2022-12-18T10:47:37;14.50;60.30
72905;DHT22;61048;52.162;4.516;2022-12-18T10:50:18;14.50;59.80
72905;DHT22;61048;52.162;4.516;2022-12-18T10:52:53;14.50;59.40
72905;DHT22;61048;52.162;4.516;2022-12-18T10:55:22;14.50;59.80
72905;DHT22;61048;52.162;4.516;2022-12-18T10:57:51;14.50;58.60
72905;DHT22;61048;52.162;4.516;2022-12-18T11:00:24;14.50;59.70
72905;DHT22;61048;52.162;4.516;2022-12-18T11:02:51;14.50;59.70
72905;DHT22;61048;52.162;4.516;2022-12-18T11:05:27;14.40;58.50
72905;DHT22;61048;52.162;4.516;2022-12-18T11:07:54;14.40;58.90
72905;DHT22;61048;52.162;4.516;2022-12-18T11:10:26;14.40;59.80
72905;DHT22;61048;52.162;4.516;2022-12-18T11:12:55;14.30;59.30
72905;DHT22;61048;52.162;4.516;2022-12-18T11:15:24;14.30;58.50
72905;DHT22;61048;52.162;4.516;2022-12-18T11:17:53;14.20;58.50
72905;DHT22;61048;52.162;4.516;2022-12-18T11:20:27;14.10;58.50
72905;DHT22;61048;52.162;4.516;2022-12-18T11:22:57;14.20;59.00
72905;DHT22;61048;52.162;4.516;2022-12-18T11:25:26;14.20;58.90
72905;DHT22;61048;52.162;4.516;2022-12-18T11:27:55;14.30;58.70
72905;DHT22;61048;52.162;4.516;2022-12-18T11:30:25;14.30;58.00
72905;DHT22;61048;52.162;4.516;2022-12-18T11:33:04;14.30;59.80
72905;DHT22;61048;52.162;4.516;2022-12-18T11:35:38;14.30;59.70
72905;DHT22;61048;52.162;4.516;2022-12-18T11:38:18;14.40;59.90
72905;DHT22;61048;52.162;4.516;2022-12-18T11:40:50;14.50;59.80
72905;DHT22;61048;52.162;4.516;2022-12-18T11:43:23;14.50;59.90
72905;DHT22;61048;52.162;4.516;2022-12-18T11:45:54;14.60;59.50
72905;DHT22;61048;52.162;4.516;2022-12-18T11:48:24;14.70;59.20
72905;DHT22;61048;52.162;4.516;2022-12-18T11:50:54;14.70;59.30
72905;DHT22;61048;52.162;4.516;2022-12-18T11:53:22;14.80;59.10
72905;DHT22;61048;52.162;4.516;2022-12-18T11:56:02;14.70;58.40
72905;DHT22;61048;52.162;4.516;2022-12-18T11:58:45;14.70;58.90
72905;DHT22;61048;52.162;4.516;2022-12-18T12:01:28;14.60;59.00
72905;DHT22;61048;52.162;4.516;2022-12-18T12:04:21;14.50;58.80
72905;DHT22;61048;52.162;4.516;2022-12-18T12:06:58;14.50;58.90
72905;DHT22;61048;52.162;4.516;2022-12-18T12:09:34;14.50;58.70
72905;DHT22;61048;52.162;4.516;2022-12-18T12:12:17;14.40;59.10
72905;DHT22;61048;52.162;4.516;2022-12-18T12:14:57;14.40;58.50
72905;DHT22;61048;52.162;4.516;2022-12-18T12:17:35;14.40;59.00
72905;DHT22;61048;52.162;4.516;2022-12-18T12:20:10;14.40;59.30
72905;DHT22;61048;52.162;4.516;2022-12-18T12:22:44;14.40;59.30
72905;DHT22;61048;52.162;4.516;2022-12-18T12:25:25;14.40;58.80
72905;DHT22;61048;52.162;4.516;2022-12-18T12:28:05;14.40;59.20
72905;DHT22;61048;52.162;4.516;2022-12-18T12:30:42;14.30;58.90
72905;DHT22;61048;52.162;4.516;2022-12-18T12:33:23;14.40;59.60
72905;DHT22;61048;52.162;4.516;2022-12-18T12:35:59;14.30;58.70
72905;DHT22;61048;52.162;4.516;2022-12-18T12:38:31;14.30;59.40
72905;DHT22;61048;52.162;4.516;2022-12-18T12:41:01;14.30;58.90
72905;DHT22;61048;52.162;4.516;2022-12-18T12:43:35;14.20;56.50
72905;DHT22;61048;52.162;4.516;2022-12-18T12:46:05;14.10;59.00
72905;DHT22;61048;52.162;4.516;2022-12-18T12:48:40;14.10;59.00
72905;DHT22;61048;52.162;4.516;2022-12-18T12:51:13;14.20;58.80
72905;DHT22;61048;52.162;4.516;2022-12-18T12:53:42;14.20;57.90
72905;DHT22;61048;52.162;4.516;2022-12-18T12:56:10;14.10;58.70
72905;DHT22;61048;52.162;4.516;2022-12-18T12:58:46;14.10;57.80
72905;DHT22;61048;52.162;4.516;2022-12-18T13:01:22;14.10;57.40
72905;DHT22;61048;52.162;4.516;2022-12-18T13:04:00;14.00;58.10
72905;DHT22;61048;52.162;4.516;2022-12-18T13:06:36;14.00;56.20
72905;DHT22;61048;52.162;4.516;2022-12-18T13:09:04;13.90;58.60
72905;DHT22;61048;52.162;4.516;2022-12-18T13:11:36;13.90;57.90
72905;DHT22;61048;52.162;4.516;2022-12-18T13:14:25;13.90;55.40
72905;DHT22;61048;52.162;4.516;2022-12-18T13:17:22;13.70;57.80
72905;DHT22;61048;52.162;4.516;2022-12-18T13:20:04;13.50;55.40
72905;DHT22;61048;52.162;4.516;2022-12-18T13:22:35;13.30;55.30
72905;DHT22;61048;52.162;4.516;2022-12-18T13:25:02;13.30;58.30
72905;DHT22;61048;52.162;4.516;2022-12-18T13:27:54;13.30;57.10
72905;DHT22;61048;52.162;4.516;2022-12-18T13:30:50;13.30;56.00
72905;DHT22;61048;52.162;4.516;2022-12-18T13:33:42;13.20;55.90
72905;DHT22;61048;52.162;4.516;2022-12-18T13:36:13;13.20;55.50
72905;DHT22;61048;52.162;4.516;2022-12-18T13:38:42;13.20;57.60
72905;DHT22;61048;52.162;4.516;2022-12-18T13:41:23;13.20;57.00
72905;DHT22;61048;52.162;4.516;2022-12-18T13:43:51;13.20;58.00
72905;DHT22;61048;52.162;4.516;2022-12-18T13:46:22;13.30;58.70
72905;DHT22;61048;52.162;4.516;2022-12-18T13:48:56;13.40;58.40
72905;DHT22;61048;52.162;4.516;2022-12-18T13:51:24;13.30;56.10
72905;DHT22;61048;52.162;4.516;2022-12-18T13:53:53;13.30;58.80
72905;DHT22;61048;52.162;4.516;2022-12-18T13:56:25;13.60;58.70
72905;DHT22;61048;52.162;4.516;2022-12-18T13:59:13;13.60;58.10
72905;DHT22;61048;52.162;4.516;2022-12-18T14:01:48;13.60;57.60
72905;DHT22;61048;52.162;4.516;2022-12-18T14:04:21;13.50;56.30
72905;DHT22;61048;52.162;4.516;2022-12-18T14:06:51;13.50;58.30
72905;DHT22;61048;52.162;4.516;2022-12-18T14:09:24;13.50;58.00
72905;DHT22;61048;52.162;4.516;2022-12-18T14:11:52;13.40;56.30
72905;DHT22;61048;52.162;4.516;2022-12-18T14:14:42;13.40;58.10
72905;DHT22;61048;52.162;4.516;2022-12-18T14:17:12;13.50;58.20
72905;DHT22;61048;52.162;4.516;2022-12-18T14:19:42;13.60;57.70
72905;DHT22;61048;52.162;4.516;2022-12-18T14:22:15;13.50;56.90
72905;DHT22;61048;52.162;4.516;2022-12-18T14:24:43;13.60;60.00
72905;DHT22;61048;52.162;4.516;2022-12-18T14:27:21;13.80;59.10
72905;DHT22;61048;52.162;4.516;2022-12-18T14:29:48;13.90;59.10
72905;DHT22;61048;52.162;4.516;2022-12-18T14:32:18;14.00;58.00
72905;DHT22;61048;52.162;4.516;2022-12-18T14:34:46;14.00;57.70
72905;DHT22;61048;52.162;4.516;2022-12-18T14:37:14;13.80;57.20
72905;DHT22;61048;52.162;4.516;2022-12-18T14:39:52;13.60;57.50
72905;DHT22;61048;52.162;4.516;2022-12-18T14:42:19;13.40;55.10
72905;DHT22;61048;52.162;4.516;2022-12-18T14:44:46;13.40;59.00
72905;DHT22;61048;52.162;4.516;2022-12-18T14:47:14;13.60;59.80
72905;DHT22;61048;52.162;4.516;2022-12-18T14:49:43;13.60;58.00
72905;DHT22;61048;52.162;4.516;2022-12-18T14:52:20;13.60;60.30
72905;DHT22;61048;52.162;4.516;2022-12-18T14:54:49;13.60;58.10
72905;DHT22;61048;52.162;4.516;2022-12-18T14:57:21;13.60;59.90
72905;DHT22;61048;52.162;4.516;2022-12-18T14:59:49;13.60;58.00
72905;DHT22;61048;52.162;4.516;2022-12-18T15:02:21;13.50;57.00
72905;DHT22;61048;52.162;4.516;2022-12-18T15:04:59;13.40;57.80
72905;DHT22;61048;52.162;4.516;2022-12-18T15:07:38;13.40;57.80
72905;DHT22;61048;52.162;4.516;2022-12-18T15:10:12;13.50;58.10
72905;DHT22;61048;52.162;4.516;2022-12-18T15:12:41;13.50;57.50
72905;DHT22;61048;52.162;4.516;2022-12-18T15:15:47;13.50;58.20
72905;DHT22;61048;52.162;4.516;2022-12-18T15:18:15;13.60;56.10
72905;DHT22;61048;52.162;4.516;2022-12-18T15:20:49;13.60;57.40
72905;DHT22;61048;52.162;4.516;2022-12-18T15:23:20;13.70;57.30
72905;DHT22;61048;52.162;4.516;2022-12-18T15:25:49;13.80;57.30
72905;DHT22;61048;52.162;4.516;2022-12-18T15:28:23;13.80;56.90
72905;DHT22;61048;52.162;4.516;2022-12-18T15:31:20;13.90;57.00
72905;DHT22;61048;52.162;4.516;2022-12-18T15:34:05;13.80;56.90
72905;DHT22;61048;52.162;4.516;2022-12-18T15:36:33;13.90;56.40
72905;DHT22;61048;52.162;4.516;2022-12-18T15:39:02;13.90;56.50
72905;DHT22;61048;52.162;4.516;2022-12-18T15:41:31;13.90;56.40
72905;DHT22;61048;52.162;4.516;2022-12-18T15:43:59;13.90;55.80
72905;DHT22;61048;52.162;4.516;2022-12-18T15:46:26;13.90;56.70
72905;DHT22;61048;52.162;4.516;2022-12-18T15:48:55;13.90;56.30
72905;DHT22;61048;52.162;4.516;2022-12-18T15:51:24;13.90;55.50
72905;DHT22;61048;52.162;4.516;2022-12-18T15:53:56;13.90;55.40